createdAt,value
2022-07-29T00:02:20.517Z,0.20
2022-07-29T00:04:48.285Z,0.30
2022-07-29T00:07:14.808Z,0.23
2022-07-29T00:09:51.881Z,0.20
2022-07-29T00:12:26.081Z,0.30
2022-07-29T00:14:54.855Z,0.25
2022-07-29T00:17:24.094Z,0.30
2022-07-29T00:19:53.069Z,0.20
2022-07-29T00:22:27.311Z,0.30
2022-07-29T00:24:58.550Z,0.20
2022-07-29T00:27:25.318Z,0.20
2022-07-29T00:29:58.954Z,0.20
2022-07-29T00:32:27.936Z,0.40
2022-07-29T00:35:13.200Z,0.20
2022-07-29T00:37:40.098Z,1.10
2022-07-29T00:40:08.380Z,0.20
2022-07-29T00:42:45.996Z,0.52
2022-07-29T00:45:13.993Z,0.27
2022-07-29T00:47:41.345Z,0.22
2022-07-29T00:50:11.287Z,0.65
2022-07-29T00:52:42.470Z,0.30
2022-07-29T00:55:11.925Z,0.30
2022-07-29T00:57:38.664Z,0.20
2022-07-29T01:00:09.406Z,0.32
2022-07-29T01:02:36.068Z,0.28
2022-07-29T01:05:04.856Z,0.30
2022-07-29T01:07:33.215Z,0.20
2022-07-29T01:10:00.416Z,0.20
2022-07-29T01:12:29.401Z,0.20
2022-07-29T01:14:59.189Z,0.60
2022-07-29T01:17:33.962Z,0.20
2022-07-29T01:20:24.869Z,0.43
2022-07-29T01:23:35.137Z,0.20
2022-07-29T01:26:22.151Z,0.32
2022-07-29T01:29:12.934Z,0.40
2022-07-29T01:32:22.544Z,0.28
2022-07-29T01:35:01.190Z,0.20
2022-07-29T01:37:53.895Z,0.40
2022-07-29T01:40:23.901Z,0.20
2022-07-29T01:42:53.793Z,0.20
2022-07-29T01:45:43.251Z,0.20
2022-07-29T01:48:33.204Z,0.30
2022-07-29T01:51:05.619Z,0.30
2022-07-29T01:53:43.789Z,0.30
2022-07-29T01:56:25.499Z,0.20
2022-07-29T01:58:54.209Z,0.32
2022-07-29T02:01:23.966Z,0.85
2022-07-29T02:03:54.040Z,0.20
2022-07-29T02:06:24.454Z,0.20
2022-07-29T02:08:53.839Z,0.30
2022-07-29T02:11:20.590Z,0.45
2022-07-29T02:13:48.815Z,0.30
2022-07-29T02:16:17.729Z,0.43
2022-07-29T02:18:47.337Z,0.20
2022-07-29T02:21:19.406Z,0.80
2022-07-29T02:23:50.819Z,0.45
2022-07-29T02:26:20.503Z,0.30
2022-07-29T02:28:51.181Z,0.30
2022-07-29T02:31:19.681Z,0.40
2022-07-29T02:33:51.823Z,0.45
2022-07-29T02:36:22.095Z,0.50
2022-07-29T02:38:51.294Z,0.30
2022-07-29T02:41:20.082Z,0.40
2022-07-29T02:43:51.368Z,0.40
2022-07-29T02:46:29.769Z,0.45
2022-07-29T02:49:01.601Z,0.55
2022-07-29T02:52:23.812Z,0.40
2022-07-29T02:54:57.814Z,0.40
2022-07-29T02:57:35.125Z,0.40
2022-07-29T03:00:10.533Z,0.50
2022-07-29T03:02:43.026Z,0.60
2022-07-29T03:05:18.041Z,0.30
2022-07-29T03:07:50.516Z,0.40
2022-07-29T03:10:20.867Z,0.30
2022-07-29T03:12:48.577Z,0.28
2022-07-29T03:15:15.679Z,0.60
2022-07-29T03:17:51.170Z,0.55
2022-07-29T03:20:18.424Z,0.40
2022-07-29T03:22:47.793Z,0.38
2022-07-29T03:25:16.119Z,0.30
2022-07-29T03:27:43.686Z,0.32
2022-07-29T03:30:11.676Z,0.40
2022-07-29T03:32:42.285Z,0.30
2022-07-29T03:35:11.555Z,0.73
2022-07-29T03:37:40.290Z,0.38
2022-07-29T03:40:11.157Z,0.40
2022-07-29T03:42:41.584Z,0.43
2022-07-29T03:45:11.323Z,0.30
2022-07-29T03:47:50.896Z,0.40
2022-07-29T03:50:21.662Z,0.32
2022-07-29T03:52:49.557Z,0.40
2022-07-29T03:55:16.998Z,0.38
2022-07-29T03:57:45.942Z,0.40
2022-07-29T04:00:13.290Z,0.38
2022-07-29T04:02:41.144Z,0.70
2022-07-29T04:05:13.907Z,0.30
2022-07-29T04:07:44.004Z,0.40
2022-07-29T04:10:10.997Z,1.33
2022-07-29T04:12:40.634Z,0.40
2022-07-29T04:15:09.651Z,0.30
2022-07-29T04:17:36.191Z,0.32
2022-07-29T04:20:06.610Z,0.95
2022-07-29T04:22:33.248Z,0.47
2022-07-29T04:25:04.068Z,0.43
2022-07-29T04:27:33.324Z,0.50
2022-07-29T04:30:00.731Z,0.30
2022-07-29T04:32:27.873Z,0.70
2022-07-29T04:34:55.052Z,0.60
2022-07-29T04:37:21.638Z,0.30
2022-07-29T04:39:49.034Z,0.40
2022-07-29T04:42:15.666Z,0.30
2022-07-29T04:44:44.002Z,0.40
2022-07-29T04:47:10.786Z,0.40
2022-07-29T04:49:42.458Z,0.40
2022-07-29T04:52:09.139Z,0.35
2022-07-29T04:54:35.631Z,0.30
2022-07-29T04:57:02.229Z,0.60
2022-07-29T04:59:28.747Z,0.40
2022-07-29T05:01:55.241Z,0.40
2022-07-29T05:04:22.005Z,0.30
2022-07-29T05:06:52.882Z,0.40
2022-07-29T05:09:21.255Z,0.30
2022-07-29T05:11:47.719Z,0.47
2022-07-29T05:14:14.787Z,0.40
2022-07-29T05:16:41.456Z,0.60
2022-07-29T05:19:12.269Z,0.50
2022-07-29T05:21:40.870Z,0.60
2022-07-29T05:24:07.571Z,0.60
2022-07-29T05:26:34.129Z,0.30
2022-07-29T05:29:00.749Z,0.70
2022-07-29T05:31:27.311Z,0.60
2022-07-29T05:33:53.857Z,0.40
2022-07-29T05:36:22.461Z,0.60
2022-07-29T05:38:49.130Z,1.88
2022-07-29T05:41:16.006Z,0.45
2022-07-29T05:43:42.617Z,0.70
2022-07-29T05:46:09.182Z,0.50
2022-07-29T05:48:35.820Z,0.50
2022-07-29T05:51:05.093Z,0.32
2022-07-29T05:53:33.402Z,1.48
2022-07-29T05:56:06.098Z,0.40
2022-07-29T05:58:33.056Z,0.40
2022-07-29T06:01:03.260Z,0.40
2022-07-29T06:03:30.270Z,0.80
2022-07-29T06:05:57.483Z,0.95
2022-07-29T06:08:24.501Z,0.40
2022-07-29T06:10:58.376Z,0.80
2022-07-29T06:13:25.244Z,1.50
2022-07-29T06:15:52.239Z,0.60
2022-07-29T06:18:19.253Z,0.40
2022-07-29T06:20:46.078Z,0.57
2022-07-29T06:23:12.766Z,0.50
2022-07-29T06:25:41.458Z,0.73
2022-07-29T06:28:08.070Z,0.60
2022-07-29T06:30:35.422Z,0.43
2022-07-29T06:33:05.115Z,0.55
2022-07-29T06:35:38.249Z,0.45
2022-07-29T06:38:30.060Z,0.50
2022-07-29T06:41:03.953Z,0.60
2022-07-29T06:43:42.702Z,0.50
2022-07-29T06:46:23.570Z,0.70
2022-07-29T06:48:53.083Z,0.52
2022-07-29T06:51:22.462Z,0.40
2022-07-29T06:53:59.046Z,0.63
2022-07-29T06:56:31.127Z,0.50
2022-07-29T06:58:57.573Z,0.63
2022-07-29T07:01:25.965Z,0.68
2022-07-29T07:03:55.385Z,0.67
2022-07-29T07:06:22.228Z,0.80
2022-07-29T07:08:52.527Z,0.70
2022-07-29T07:11:20.503Z,0.77
2022-07-29T07:13:47.126Z,0.60
2022-07-29T07:16:13.875Z,0.60
2022-07-29T07:18:40.630Z,0.77
2022-07-29T07:21:08.158Z,2.05
2022-07-29T07:23:34.784Z,0.50
2022-07-29T07:26:07.485Z,0.50
2022-07-29T07:28:35.067Z,0.77
2022-07-29T07:31:01.736Z,0.98
2022-07-29T07:33:28.624Z,1.17
2022-07-29T07:35:55.283Z,0.77
2022-07-29T07:38:21.856Z,0.70
2022-07-29T07:40:49.764Z,0.67
2022-07-29T07:43:17.761Z,0.70
2022-07-29T07:45:44.457Z,2.53
2022-07-29T07:48:11.304Z,1.00
2022-07-29T07:50:38.132Z,0.70
2022-07-29T07:53:04.787Z,0.60
2022-07-29T07:55:47.459Z,1.10
2022-07-29T07:58:18.039Z,0.95
2022-07-29T08:00:44.691Z,1.00
2022-07-29T08:03:17.010Z,1.10
2022-07-29T08:05:43.959Z,0.63
2022-07-29T08:08:10.682Z,0.77
2022-07-29T08:10:57.066Z,0.90
2022-07-29T08:13:31.495Z,0.70
2022-07-29T08:16:00.170Z,0.65
2022-07-29T08:18:31.624Z,1.57
2022-07-29T08:20:59.634Z,0.73
2022-07-29T08:23:45.405Z,1.52
2022-07-29T08:26:18.341Z,0.88
2022-07-29T08:28:47.068Z,0.73
2022-07-29T08:31:18.906Z,1.13
2022-07-29T08:33:45.497Z,0.73
2022-07-29T08:36:13.776Z,0.80
2022-07-29T08:38:40.606Z,0.82
2022-07-29T08:41:07.125Z,0.90
2022-07-29T08:43:38.464Z,0.80
2022-07-29T08:46:05.394Z,0.73
2022-07-29T08:48:34.096Z,1.38
2022-07-29T08:51:01.678Z,1.20
2022-07-29T08:53:29.459Z,0.85
2022-07-29T08:55:57.165Z,1.40
2022-07-29T08:58:28.471Z,0.65
2022-07-29T09:01:02.172Z,0.77
2022-07-29T09:03:37.825Z,0.68
2022-07-29T09:06:08.696Z,0.98
2022-07-29T09:08:36.089Z,0.80
2022-07-29T09:11:05.599Z,0.75
2022-07-29T09:13:32.444Z,1.23
2022-07-29T09:15:59.004Z,0.50
2022-07-29T09:18:51.723Z,1.08
2022-07-29T09:21:40.311Z,1.00
2022-07-29T09:24:12.376Z,0.80
2022-07-29T09:26:46.617Z,0.98
2022-07-29T09:29:20.124Z,0.70
2022-07-29T09:31:49.298Z,0.70
2022-07-29T09:34:21.955Z,0.70
2022-07-29T09:36:51.143Z,1.17
2022-07-29T09:39:41.733Z,0.80
2022-07-29T09:42:08.462Z,0.60
2022-07-29T09:44:51.399Z,0.80
2022-07-29T09:47:25.020Z,0.63
2022-07-29T09:49:59.422Z,0.52
2022-07-29T09:52:31.072Z,0.65
2022-07-29T09:55:08.112Z,0.88
2022-07-29T09:57:35.477Z,0.70
2022-07-29T10:00:05.377Z,0.70
2022-07-29T10:02:38.008Z,0.75
2022-07-29T10:05:20.364Z,1.02
2022-07-29T10:07:57.300Z,0.65
2022-07-29T10:10:28.429Z,0.63
2022-07-29T10:12:56.564Z,1.77
2022-07-29T10:15:27.116Z,1.08
2022-07-29T10:17:56.712Z,0.68
2022-07-29T10:20:25.513Z,1.02
2022-07-29T10:22:54.414Z,0.82
2022-07-29T10:25:22.139Z,0.77
2022-07-29T10:27:50.373Z,0.80
2022-07-29T10:30:20.428Z,1.08
2022-07-29T10:32:54.472Z,0.57
2022-07-29T10:35:21.877Z,0.90
2022-07-29T10:38:14.871Z,0.73
2022-07-29T10:41:26.390Z,0.90
2022-07-29T10:44:19.062Z,1.13
2022-07-29T10:46:47.359Z,1.10
2022-07-29T10:49:19.120Z,0.90
2022-07-29T10:51:51.610Z,1.00
2022-07-29T10:54:42.428Z,1.45
2022-07-29T10:57:54.270Z,0.98
2022-07-29T11:00:28.502Z,2.53
2022-07-29T11:02:57.589Z,1.30
2022-07-29T11:05:49.868Z,1.73
2022-07-29T11:08:26.001Z,1.50
2022-07-29T11:11:15.733Z,1.83
2022-07-29T11:14:10.739Z,1.58
2022-07-29T11:22:54.200Z,2.15
2022-07-29T11:26:20.768Z,1.85
2022-07-29T11:29:27.491Z,1.10
2022-07-29T11:33:10.158Z,2.10
2022-07-29T11:35:37.017Z,1.10
2022-07-29T11:38:23.732Z,0.50
2022-07-29T11:45:42.876Z,0.90
2022-07-29T11:47:50.449Z,1.52
2022-07-29T11:50:27.726Z,0.73
2022-07-29T11:52:58.705Z,0.80
2022-07-29T11:55:32.571Z,1.77
2022-07-29T11:58:10.076Z,0.88
2022-07-29T12:03:34.991Z,0.90
2022-07-29T12:06:18.358Z,0.60
2022-07-29T12:08:48.193Z,1.00
2022-07-29T12:11:22.953Z,1.10
2022-07-29T12:13:51.380Z,1.95
2022-07-29T12:16:29.284Z,0.70
2022-07-29T12:19:05.772Z,1.02
2022-07-29T12:21:56.143Z,0.70
2022-07-29T12:24:26.973Z,0.90
2022-07-29T12:26:59.200Z,0.90
2022-07-29T12:29:35.620Z,1.30
2022-07-29T12:32:14.346Z,1.58
2022-07-29T12:34:43.113Z,1.00
2022-07-29T12:37:19.460Z,0.70
2022-07-29T12:40:02.531Z,0.88
2022-07-29T12:42:31.941Z,1.07
2022-07-29T12:44:59.871Z,1.02
2022-07-29T12:47:26.672Z,1.15
2022-07-29T12:50:10.092Z,1.02
2022-07-29T12:52:37.219Z,1.08
2022-07-29T12:55:05.219Z,0.90
2022-07-29T12:57:35.853Z,1.25
2022-07-29T13:00:09.054Z,1.40
2022-07-29T13:02:37.532Z,1.00
2022-07-29T13:05:11.953Z,1.27
2022-07-29T13:07:55.895Z,2.00
2022-07-29T13:10:25.171Z,1.30
2022-07-29T13:13:11.572Z,1.50
2022-07-29T13:15:43.761Z,1.63
2022-07-29T13:18:30.078Z,1.30
2022-07-29T13:20:57.819Z,1.30
2022-07-29T13:23:24.559Z,0.93
2022-07-29T13:25:51.161Z,3.03
2022-07-29T13:28:22.593Z,1.10
2022-07-29T13:30:52.104Z,1.60
2022-07-29T13:33:30.772Z,1.87
2022-07-29T13:35:57.812Z,1.33
2022-07-29T13:38:31.145Z,1.33
2022-07-29T13:40:59.418Z,1.63
2022-07-29T13:43:26.148Z,1.17
2022-07-29T13:45:53.407Z,1.30
2022-07-29T13:48:22.487Z,1.65
2022-07-29T13:50:50.307Z,1.15
2022-07-29T13:53:18.171Z,1.80
2022-07-29T13:55:45.499Z,1.70
2022-07-29T13:58:15.164Z,1.43
2022-07-29T14:00:42.113Z,1.15
2022-07-29T14:03:08.886Z,1.23
2022-07-29T14:05:35.351Z,1.35
2022-07-29T14:08:01.933Z,1.90
2022-07-29T14:10:28.536Z,1.80
2022-07-29T14:12:55.201Z,1.38
2022-07-29T14:15:23.575Z,1.23
2022-07-29T14:17:50.040Z,1.10
2022-07-29T14:20:17.299Z,1.52
2022-07-29T14:22:44.875Z,1.13
2022-07-29T14:25:15.061Z,1.33
2022-07-29T14:27:42.590Z,1.20
2022-07-29T14:30:09.815Z,1.40
2022-07-29T14:32:36.242Z,1.42
2022-07-29T14:35:04.356Z,1.00
2022-07-29T14:37:39.741Z,1.17
2022-07-29T14:40:09.526Z,1.67
2022-07-29T14:42:37.289Z,1.85
2022-07-29T14:45:07.787Z,1.83
2022-07-29T14:47:35.690Z,1.80
2022-07-29T14:50:02.900Z,1.63
2022-07-29T14:52:30.129Z,2.22
2022-07-29T14:54:56.859Z,1.38
2022-07-29T14:57:23.481Z,1.73
2022-07-29T14:59:50.034Z,1.70
2022-07-29T15:02:16.696Z,1.65
2022-07-29T15:04:44.339Z,3.05
2022-07-29T15:07:10.884Z,1.20
2022-07-29T15:09:40.286Z,1.13
2022-07-29T15:12:16.780Z,1.47
2022-07-29T15:14:45.359Z,1.10
2022-07-29T15:17:12.198Z,1.73
2022-07-29T15:19:39.068Z,2.08
2022-07-29T15:22:11.747Z,1.17
2022-07-29T15:24:38.826Z,0.90
2022-07-29T15:27:07.562Z,0.98
2022-07-29T15:29:35.265Z,0.88
2022-07-29T15:32:05.887Z,0.50
2022-07-29T15:34:39.438Z,1.00
2022-07-29T15:40:09.068Z,1.60
2022-07-29T15:42:36.898Z,1.10
2022-07-29T15:45:05.043Z,0.88
2022-07-29T15:47:31.495Z,1.08
2022-07-29T15:49:57.943Z,1.08
2022-07-29T15:52:24.956Z,0.98
2022-07-29T15:54:56.657Z,0.63
2022-07-29T15:57:23.983Z,0.80
2022-07-29T15:59:51.866Z,1.27
2022-07-29T16:02:18.560Z,0.85
2022-07-29T16:04:45.062Z,1.08
2022-07-29T16:07:11.645Z,0.47
2022-07-29T16:09:38.169Z,0.90
2022-07-29T16:12:10.002Z,1.15
2022-07-29T16:14:42.013Z,0.73
2022-07-29T16:17:08.603Z,0.60
2022-07-29T16:19:40.652Z,0.57
2022-07-29T16:22:07.115Z,0.80
2022-07-29T16:24:33.599Z,0.63
2022-07-29T16:27:00.556Z,1.02
2022-07-29T16:29:27.432Z,0.50
2022-07-29T16:31:53.961Z,0.57
2022-07-29T16:34:20.551Z,0.43
2022-07-29T16:36:47.999Z,1.08
2022-07-29T16:39:14.705Z,1.00
2022-07-29T16:41:41.207Z,0.73
2022-07-29T16:44:07.734Z,0.70
2022-07-29T16:46:37.204Z,1.10
2022-07-29T16:49:05.552Z,0.52
2022-07-29T16:51:32.572Z,1.92
2022-07-29T16:53:59.170Z,0.68
2022-07-29T16:56:25.693Z,0.83
2022-07-29T16:58:52.167Z,0.73
2022-07-29T17:01:18.828Z,0.55
2022-07-29T17:04:03.875Z,0.90
2022-07-29T17:06:30.463Z,0.80
2022-07-29T17:08:57.039Z,0.73
2022-07-29T17:11:51.798Z,0.50
2022-07-29T17:14:10.690Z,0.60
2022-07-29T17:16:37.414Z,0.60
2022-07-29T17:19:04.023Z,0.82
2022-07-29T17:21:30.531Z,0.67
2022-07-29T17:23:59.187Z,0.60
2022-07-29T17:26:27.404Z,0.98
2022-07-29T17:28:54.702Z,0.82
2022-07-29T17:31:21.671Z,0.70
2022-07-29T17:33:48.236Z,0.90
2022-07-29T17:36:23.567Z,0.70
2022-07-29T17:38:55.493Z,0.95
2022-07-29T17:41:22.586Z,0.93
2022-07-29T17:43:49.628Z,0.50
2022-07-29T17:46:16.862Z,0.53
2022-07-29T17:48:44.190Z,0.90
2022-07-29T17:51:10.983Z,0.90
2022-07-29T17:53:38.139Z,2.10
2022-07-29T17:56:05.104Z,1.00
2022-07-29T17:58:31.902Z,0.70
2022-07-29T18:00:59.476Z,1.23
2022-07-29T18:03:28.169Z,0.70
2022-07-29T18:05:54.670Z,0.50
2022-07-29T18:08:21.293Z,0.50
2022-07-29T18:10:48.073Z,0.40
2022-07-29T18:13:16.566Z,0.60
2022-07-29T18:15:45.097Z,0.65
2022-07-29T18:18:13.173Z,0.70
2022-07-29T18:20:39.995Z,0.70
2022-07-29T18:23:06.716Z,0.70
2022-07-29T18:25:33.140Z,0.77
2022-07-29T18:28:00.730Z,0.63
2022-07-29T18:30:28.953Z,1.10
2022-07-29T18:33:19.788Z,0.73
2022-07-29T18:35:41.934Z,0.60
2022-07-29T18:38:08.369Z,1.08
2022-07-29T18:40:35.354Z,0.70
2022-07-29T18:43:01.910Z,1.13
2022-07-29T18:45:28.988Z,0.90
2022-07-29T18:47:56.556Z,0.70
2022-07-29T18:50:28.832Z,0.70
2022-07-29T18:52:58.837Z,0.73
2022-07-29T18:55:26.297Z,0.75
2022-07-29T18:57:55.979Z,0.70
2022-07-29T19:00:24.267Z,0.80
2022-07-29T19:02:51.354Z,1.15
2022-07-29T19:05:18.342Z,0.70
2022-07-29T19:07:44.855Z,0.90
2022-07-29T19:10:12.222Z,0.90
2022-07-29T19:12:39.132Z,1.07
2022-07-29T19:15:07.530Z,1.13
2022-07-29T19:17:34.045Z,1.30
2022-07-29T19:20:00.551Z,1.02
2022-07-29T19:22:27.063Z,1.00
2022-07-29T19:24:53.539Z,1.00
2022-07-29T19:27:20.152Z,1.08
2022-07-29T19:29:46.699Z,1.20
2022-07-29T19:32:14.465Z,1.30
2022-07-29T19:35:10.384Z,0.90
2022-07-29T19:37:37.412Z,1.20
2022-07-29T19:40:05.172Z,1.27
2022-07-29T19:42:31.595Z,0.95
2022-07-29T19:44:58.027Z,1.02
2022-07-29T19:47:24.565Z,1.08
2022-07-29T19:49:51.474Z,1.00
2022-07-29T19:52:17.983Z,2.42
2022-07-29T19:54:44.517Z,1.30
2022-07-29T19:57:11.064Z,1.55
2022-07-29T19:59:37.619Z,1.30
2022-07-29T20:02:04.563Z,1.77
2022-07-29T20:04:31.152Z,1.58
2022-07-29T20:07:01.351Z,1.85
2022-07-29T20:09:28.656Z,1.38
2022-07-29T20:11:55.252Z,1.15
2022-07-29T20:14:21.818Z,1.43
2022-07-29T20:16:48.849Z,1.30
2022-07-29T20:19:15.588Z,1.80
2022-07-29T20:21:42.016Z,1.90
2022-07-29T20:24:10.336Z,1.48
2022-07-29T20:26:36.879Z,1.50
2022-07-29T20:29:05.202Z,1.80
2022-07-29T20:31:32.674Z,1.65
2022-07-29T20:34:00.739Z,2.55
2022-07-29T20:36:28.118Z,1.52
2022-07-29T20:38:55.336Z,1.40
2022-07-29T20:41:22.345Z,1.35
2022-07-29T20:43:49.852Z,1.45
2022-07-29T20:46:16.526Z,1.30
2022-07-29T20:48:43.208Z,1.65
2022-07-29T20:51:10.778Z,1.57
2022-07-29T20:53:38.572Z,1.15
2022-07-29T20:56:05.868Z,1.65
2022-07-29T20:58:33.997Z,1.80
2022-07-29T21:01:01.501Z,2.00
2022-07-29T21:03:27.964Z,2.20
2022-07-29T21:05:54.518Z,1.70
2022-07-29T21:08:21.087Z,2.65
2022-07-29T21:10:47.755Z,1.70
2022-07-29T21:13:14.442Z,2.20
2022-07-29T21:15:44.568Z,1.73
2022-07-29T21:18:26.887Z,1.70
2022-07-29T21:21:01.006Z,1.58
2022-07-29T21:23:27.750Z,2.17
2022-07-29T21:25:54.635Z,1.90
2022-07-29T21:28:27.511Z,1.70
2022-07-29T21:30:56.455Z,2.13
2022-07-29T21:33:23.600Z,3.00
2022-07-29T21:38:37.712Z,1.85
2022-07-29T21:41:05.273Z,1.57
2022-07-29T21:43:32.117Z,2.10
2022-07-29T21:46:00.665Z,1.80
2022-07-29T21:48:28.735Z,2.17
2022-07-29T21:50:55.538Z,1.75
2022-07-29T21:53:23.054Z,1.63
2022-07-29T21:55:56.151Z,1.73
2022-07-29T21:58:23.655Z,2.22
2022-07-29T22:00:50.206Z,1.17
2022-07-29T22:03:17.331Z,1.30
2022-07-29T22:05:44.609Z,1.70
2022-07-29T22:08:11.494Z,1.85
2022-07-29T22:10:38.092Z,2.42
2022-07-29T22:13:04.647Z,1.67
2022-07-29T22:15:31.351Z,1.88
2022-07-29T22:17:58.326Z,1.50
2022-07-29T22:20:25.031Z,2.22
2022-07-29T22:22:51.674Z,1.50
2022-07-29T22:25:18.961Z,1.92
2022-07-29T22:27:46.596Z,3.10
2022-07-29T22:30:13.352Z,1.60
2022-07-29T22:32:40.548Z,1.58
2022-07-29T22:35:07.724Z,1.20
2022-07-29T22:37:34.353Z,1.55
2022-07-29T22:40:02.262Z,1.55
2022-07-29T22:42:28.890Z,1.50
2022-07-29T22:44:55.347Z,1.58
2022-07-29T22:47:46.578Z,2.30
2022-07-29T22:50:10.353Z,1.98
2022-07-29T22:52:37.000Z,1.33
2022-07-29T22:55:06.721Z,2.10
2022-07-29T22:57:33.998Z,1.50
2022-07-29T23:00:03.683Z,1.77
2022-07-29T23:02:30.314Z,1.83
2022-07-29T23:04:57.243Z,1.98
2022-07-29T23:07:24.169Z,1.83
2022-07-29T23:09:51.362Z,1.73
2022-07-29T23:15:21.071Z,1.55
2022-07-29T23:17:47.935Z,1.80
2022-07-29T23:20:14.910Z,1.57
2022-07-29T23:22:41.918Z,1.60
2022-07-29T23:25:09.368Z,1.65
2022-07-29T23:27:36.341Z,1.73
2022-07-29T23:30:04.776Z,2.08
2022-07-29T23:32:31.461Z,2.13
2022-07-29T23:34:57.884Z,2.30
2022-07-29T23:37:24.714Z,1.83
2022-07-29T23:39:53.437Z,2.03
2022-07-29T23:42:19.881Z,1.75
2022-07-29T23:44:46.698Z,1.60
2022-07-29T23:47:14.574Z,2.10
2022-07-29T23:49:41.087Z,2.15
2022-07-29T23:52:07.788Z,2.25
2022-07-29T23:54:34.331Z,1.67
2022-07-29T23:57:01.158Z,1.77
2022-07-29T23:59:30.794Z,1.75
